createdAt,value
2022-07-30T00:01:35.841Z,18.40
2022-07-30T00:04:22.733Z,18.40
2022-07-30T00:07:09.229Z,18.30
2022-07-30T00:09:55.254Z,18.30
2022-07-30T00:12:42.965Z,18.20
2022-07-30T00:15:29.270Z,18.10
2022-07-30T00:18:15.326Z,18.10
2022-07-30T00:21:01.792Z,18.10
2022-07-30T00:24:01.182Z,18.00
2022-07-30T00:26:48.265Z,17.90
2022-07-30T00:29:35.096Z,17.90
2022-07-30T00:32:22.843Z,17.90
2022-07-30T00:35:10.940Z,17.90
2022-07-30T00:37:57.078Z,17.80
2022-07-30T00:40:43.227Z,17.80
2022-07-30T00:43:29.642Z,17.80
2022-07-30T00:46:15.984Z,17.80
2022-07-30T00:49:02.099Z,17.80
2022-07-30T00:51:49.082Z,17.80
2022-07-30T00:54:35.142Z,17.80
2022-07-30T00:57:21.287Z,17.80
2022-07-30T01:00:10.462Z,17.80
2022-07-30T01:02:56.973Z,17.80
2022-07-30T01:05:43.136Z,17.80
2022-07-30T01:08:29.553Z,17.70
2022-07-30T01:11:16.392Z,17.70
2022-07-30T01:14:03.468Z,17.70
2022-07-30T01:16:50.413Z,17.70
2022-07-30T01:19:49.788Z,17.70
2022-07-30T01:22:54.544Z,17.70
2022-07-30T01:25:58.531Z,17.60
2022-07-30T01:28:54.425Z,17.60
2022-07-30T01:31:43.909Z,17.60
2022-07-30T01:34:34.332Z,17.60
2022-07-30T01:37:21.721Z,17.50
2022-07-30T01:40:08.912Z,17.50
2022-07-30T01:42:58.792Z,17.50
2022-07-30T01:45:47.154Z,17.50
2022-07-30T01:48:37.422Z,17.40
2022-07-30T01:51:24.896Z,17.40
2022-07-30T01:54:14.493Z,17.40
2022-07-30T01:57:01.958Z,17.40
2022-07-30T01:59:52.276Z,17.30
2022-07-30T02:02:41.166Z,17.30
2022-07-30T02:05:30.512Z,17.30
2022-07-30T02:08:51.153Z,17.30
2022-07-30T02:12:03.401Z,17.30
2022-07-30T02:15:05.728Z,17.30
2022-07-30T02:18:15.104Z,17.20
2022-07-30T02:21:07.472Z,17.20
2022-07-30T02:23:56.513Z,17.20
2022-07-30T02:26:44.179Z,17.20
2022-07-30T02:29:34.555Z,17.20
2022-07-30T02:32:23.295Z,17.20
2022-07-30T02:35:21.118Z,17.10
2022-07-30T02:38:10.127Z,17.10
2022-07-30T02:40:59.196Z,17.10
2022-07-30T02:43:46.014Z,17.10
2022-07-30T02:46:34.479Z,17.10
2022-07-30T02:49:48.565Z,17.00
2022-07-30T02:52:35.573Z,17.00
2022-07-30T02:55:23.964Z,17.00
2022-07-30T02:58:11.502Z,16.90
2022-07-30T03:01:00.123Z,16.90
2022-07-30T03:03:47.654Z,16.90
2022-07-30T03:06:35.478Z,16.80
2022-07-30T03:09:22.798Z,16.80
2022-07-30T03:12:12.750Z,16.80
2022-07-30T03:14:59.085Z,16.70
2022-07-30T03:17:50.715Z,16.70
2022-07-30T03:20:38.325Z,16.70
2022-07-30T03:23:25.290Z,16.70
2022-07-30T03:26:13.028Z,16.60
2022-07-30T03:29:00.048Z,16.60
2022-07-30T03:31:47.129Z,16.60
2022-07-30T03:34:35.124Z,16.60
2022-07-30T03:37:21.461Z,16.60
2022-07-30T03:40:09.009Z,16.50
2022-07-30T03:42:56.132Z,16.50
2022-07-30T03:45:47.121Z,16.50
2022-07-30T03:48:36.653Z,16.50
2022-07-30T03:51:23.139Z,16.50
2022-07-30T03:54:13.820Z,16.50
2022-07-30T03:57:04.711Z,16.40
2022-07-30T03:59:59.410Z,16.40
2022-07-30T04:02:47.182Z,16.40
2022-07-30T04:05:45.902Z,16.40
2022-07-30T04:08:33.167Z,16.40
2022-07-30T04:11:19.429Z,16.30
2022-07-30T04:14:27.058Z,16.30
2022-07-30T04:17:25.991Z,16.40
2022-07-30T04:20:24.740Z,16.30
2022-07-30T04:23:11.861Z,16.30
2022-07-30T04:26:01.639Z,16.30
2022-07-30T04:28:48.195Z,16.30
2022-07-30T04:31:39.816Z,16.30
2022-07-30T04:34:56.864Z,16.30
2022-07-30T04:38:05.840Z,16.30
2022-07-30T04:40:51.975Z,16.30
2022-07-30T04:43:38.338Z,16.40
2022-07-30T04:46:24.871Z,16.40
2022-07-30T04:49:13.870Z,16.40
2022-07-30T04:52:02.678Z,16.40
2022-07-30T04:54:53.052Z,16.40
2022-07-30T04:57:42.530Z,16.50
2022-07-30T05:00:32.327Z,16.50
2022-07-30T05:03:22.352Z,16.50
2022-07-30T05:06:12.325Z,16.60
2022-07-30T05:09:00.370Z,16.70
2022-07-30T05:11:54.125Z,16.70
2022-07-30T05:14:40.235Z,16.80
2022-07-30T05:17:26.245Z,16.80
2022-07-30T05:20:12.365Z,16.90
2022-07-30T05:23:18.939Z,16.90
2022-07-30T05:26:18.549Z,16.90
2022-07-30T05:29:08.983Z,17.00
2022-07-30T05:32:08.691Z,17.00
2022-07-30T05:34:58.495Z,17.00
2022-07-30T05:37:45.119Z,17.10
2022-07-30T05:40:31.636Z,17.10
2022-07-30T05:43:56.826Z,17.20
2022-07-30T05:46:43.111Z,17.20
2022-07-30T05:49:29.140Z,17.30
2022-07-30T05:52:23.585Z,17.40
2022-07-30T05:55:13.600Z,17.50
2022-07-30T05:58:36.407Z,17.60
2022-07-30T06:01:23.047Z,17.80
2022-07-30T06:04:09.370Z,17.90
2022-07-30T06:07:03.967Z,17.90
2022-07-30T06:09:52.381Z,18.10
2022-07-30T06:12:39.113Z,18.20
2022-07-30T06:15:26.499Z,18.20
2022-07-30T06:18:13.824Z,18.30
2022-07-30T06:21:12.084Z,18.40
2022-07-30T06:24:18.285Z,18.40
2022-07-30T06:27:30.928Z,18.50
2022-07-30T06:30:17.615Z,18.50
2022-07-30T06:33:03.852Z,18.60
2022-07-30T06:35:49.985Z,18.70
2022-07-30T06:38:38.959Z,18.70
2022-07-30T06:41:31.843Z,18.80
2022-07-30T06:44:21.495Z,18.90
2022-07-30T06:47:42.609Z,19.00
2022-07-30T06:50:29.200Z,19.10
2022-07-30T06:53:15.729Z,19.30
2022-07-30T06:56:24.609Z,19.40
2022-07-30T06:59:16.390Z,19.50
2022-07-30T07:02:04.521Z,19.60
2022-07-30T07:04:55.060Z,19.60
2022-07-30T07:07:44.311Z,19.80
2022-07-30T07:10:39.558Z,19.90
2022-07-30T07:13:34.118Z,20.00
2022-07-30T07:16:27.157Z,20.20
2022-07-30T07:19:15.109Z,20.20
2022-07-30T07:22:21.054Z,20.30
2022-07-30T07:25:08.628Z,20.40
2022-07-30T07:28:12.548Z,20.50
2022-07-30T07:31:03.122Z,20.60
2022-07-30T07:33:49.152Z,20.50
2022-07-30T07:36:36.419Z,20.60
2022-07-30T07:39:22.631Z,20.60
2022-07-30T07:42:09.587Z,20.60
2022-07-30T07:44:58.401Z,20.70
2022-07-30T07:47:51.963Z,20.80
2022-07-30T07:51:11.987Z,20.80
2022-07-30T07:54:19.755Z,20.90
2022-07-30T07:57:07.909Z,21.00
2022-07-30T08:00:00.068Z,21.10
2022-07-30T08:02:49.720Z,21.20
2022-07-30T08:05:56.876Z,21.30
2022-07-30T08:09:05.877Z,21.30
2022-07-30T08:12:21.964Z,21.50
2022-07-30T08:15:46.326Z,21.50
2022-07-30T08:18:51.446Z,21.70
2022-07-30T08:21:47.861Z,21.80
2022-07-30T08:24:36.654Z,21.90
2022-07-30T08:27:22.569Z,22.00
2022-07-30T08:30:09.823Z,22.00
2022-07-30T08:32:55.684Z,22.10
2022-07-30T08:35:48.616Z,22.20
2022-07-30T08:38:43.512Z,22.30
2022-07-30T08:41:31.563Z,22.30
2022-07-30T08:44:21.855Z,22.40
2022-07-30T08:47:11.502Z,22.40
2022-07-30T08:50:24.572Z,22.40
2022-07-30T08:53:27.442Z,22.50
2022-07-30T08:56:13.690Z,22.50
2022-07-30T08:59:01.294Z,22.60
2022-07-30T09:01:47.532Z,22.70
2022-07-30T09:04:34.017Z,22.70
2022-07-30T09:07:19.956Z,22.80
2022-07-30T09:10:08.421Z,22.90
2022-07-30T09:12:56.125Z,23.00
2022-07-30T09:15:42.553Z,23.10
2022-07-30T09:18:34.588Z,23.20
2022-07-30T09:21:24.357Z,23.30
2022-07-30T09:24:43.903Z,23.30
2022-07-30T09:27:53.070Z,23.40
2022-07-30T09:31:11.375Z,23.50
2022-07-30T09:34:36.631Z,23.60
2022-07-30T09:37:22.577Z,23.80
2022-07-30T09:40:51.762Z,23.90
2022-07-30T09:43:52.029Z,23.90
2022-07-30T09:46:51.649Z,24.00
2022-07-30T09:49:47.144Z,24.10
2022-07-30T09:52:34.003Z,24.20
2022-07-30T09:55:34.717Z,24.30
2022-07-30T09:58:26.912Z,24.40
2022-07-30T10:01:15.967Z,24.50
2022-07-30T10:04:08.397Z,24.50
2022-07-30T10:07:25.159Z,24.40
2022-07-30T10:10:15.649Z,24.40
2022-07-30T10:13:04.870Z,24.40
2022-07-30T10:15:52.742Z,24.40
2022-07-30T10:18:41.687Z,24.30
2022-07-30T10:21:48.876Z,24.40
2022-07-30T10:24:53.942Z,24.50
2022-07-30T10:28:00.247Z,24.60
2022-07-30T10:30:51.146Z,24.70
2022-07-30T10:33:40.308Z,24.90
2022-07-30T10:36:28.294Z,25.00
2022-07-30T10:39:24.806Z,25.10
2022-07-30T10:42:30.462Z,25.20
2022-07-30T10:45:22.979Z,25.20
2022-07-30T10:48:09.529Z,25.20
2022-07-30T10:50:57.286Z,25.20
2022-07-30T10:53:46.665Z,25.20
2022-07-30T10:56:37.929Z,25.20
2022-07-30T10:59:28.816Z,25.20
2022-07-30T11:02:17.735Z,25.10
2022-07-30T11:05:27.113Z,25.10
2022-07-30T11:08:37.164Z,25.20
2022-07-30T11:12:01.126Z,25.20
2022-07-30T11:14:47.212Z,25.30
2022-07-30T11:18:05.116Z,25.50
2022-07-30T11:21:35.605Z,25.50
2022-07-30T11:24:45.337Z,25.50
2022-07-30T11:27:36.174Z,25.60
2022-07-30T11:30:23.717Z,25.60
2022-07-30T11:33:10.642Z,25.80
2022-07-30T11:36:24.986Z,25.90
2022-07-30T11:39:11.294Z,26.00
2022-07-30T11:42:25.999Z,26.10
2022-07-30T11:45:18.220Z,26.20
2022-07-30T11:48:11.031Z,26.20
2022-07-30T11:51:00.801Z,26.20
2022-07-30T11:54:02.607Z,26.30
2022-07-30T11:56:53.925Z,26.30
2022-07-30T11:59:56.501Z,26.30
2022-07-30T12:02:42.555Z,26.40
2022-07-30T12:05:29.052Z,26.50
2022-07-30T12:08:33.466Z,26.50
2022-07-30T12:11:22.392Z,26.50
2022-07-30T12:14:08.496Z,26.60
2022-07-30T12:16:55.097Z,26.70
2022-07-30T12:19:48.530Z,26.70
2022-07-30T12:22:35.125Z,26.70
2022-07-30T12:25:21.445Z,26.70
2022-07-30T12:28:08.310Z,26.50
2022-07-30T12:30:59.210Z,26.30
2022-07-30T12:33:45.602Z,26.10
2022-07-30T12:36:33.869Z,26.00
2022-07-30T12:39:25.520Z,25.80
2022-07-30T12:42:21.770Z,25.70
2022-07-30T12:45:29.485Z,25.70
2022-07-30T12:48:35.801Z,25.70
2022-07-30T12:51:26.777Z,25.80
2022-07-30T12:54:19.423Z,26.00
2022-07-30T12:57:06.925Z,26.20
2022-07-30T13:00:07.010Z,26.30
2022-07-30T13:02:53.200Z,26.50
2022-07-30T13:05:57.714Z,26.60
2022-07-30T13:08:49.724Z,27.00
2022-07-30T13:11:41.848Z,27.20
2022-07-30T13:14:35.670Z,27.40
2022-07-30T13:17:22.255Z,27.60
2022-07-30T13:20:09.137Z,27.70
2022-07-30T13:23:00.146Z,27.90
2022-07-30T13:25:47.923Z,28.10
2022-07-30T13:28:35.251Z,28.20
2022-07-30T13:31:22.478Z,28.40
2022-07-30T13:34:08.783Z,28.50
2022-07-30T13:36:55.132Z,28.50
2022-07-30T13:39:41.136Z,28.50
2022-07-30T13:42:27.294Z,28.50
2022-07-30T13:45:13.310Z,28.60
2022-07-30T13:47:59.425Z,28.60
2022-07-30T13:50:46.270Z,28.60
2022-07-30T13:53:32.519Z,28.60
2022-07-30T13:56:19.600Z,28.50
2022-07-30T13:59:06.541Z,28.40
2022-07-30T14:01:52.824Z,28.30
2022-07-30T14:04:39.132Z,28.30
2022-07-30T14:07:25.112Z,28.50
2022-07-30T14:10:11.067Z,28.70
2022-07-30T14:12:57.730Z,29.00
2022-07-30T14:15:43.940Z,29.10
2022-07-30T14:18:30.055Z,29.30
2022-07-30T14:21:16.240Z,29.30
2022-07-30T14:24:05.059Z,29.40
2022-07-30T14:26:57.938Z,29.50
2022-07-30T14:29:44.354Z,29.50
2022-07-30T14:32:32.694Z,29.40
2022-07-30T14:35:24.633Z,29.50
2022-07-30T14:38:11.012Z,29.50
2022-07-30T14:40:57.305Z,29.50
2022-07-30T14:43:45.954Z,29.50
2022-07-30T14:46:32.063Z,29.30
2022-07-30T14:49:21.648Z,29.10
2022-07-30T14:52:09.027Z,28.90
2022-07-30T14:54:55.376Z,28.70
2022-07-30T14:57:43.386Z,28.60
2022-07-30T15:00:34.575Z,28.70
2022-07-30T15:03:35.166Z,28.90
2022-07-30T15:06:21.101Z,29.10
2022-07-30T15:09:07.978Z,29.30
2022-07-30T15:12:08.428Z,29.50
2022-07-30T15:14:58.742Z,30.00
2022-07-30T15:17:45.030Z,30.30
2022-07-30T15:20:34.043Z,30.50
2022-07-30T15:23:19.960Z,30.50
2022-07-30T15:26:06.106Z,30.50
2022-07-30T15:28:52.520Z,30.50
2022-07-30T15:31:38.373Z,30.20
2022-07-30T15:34:24.418Z,30.00
2022-07-30T15:37:10.514Z,29.70
2022-07-30T15:39:56.779Z,29.40
2022-07-30T15:42:43.084Z,29.10
2022-07-30T15:45:29.533Z,28.60
2022-07-30T15:48:35.521Z,28.30
2022-07-30T15:51:21.782Z,28.00
2022-07-30T15:54:07.908Z,27.80
2022-07-30T15:57:00.864Z,27.50
2022-07-30T15:59:50.801Z,27.20
2022-07-30T16:02:37.232Z,27.00
2022-07-30T16:05:26.254Z,26.90
2022-07-30T16:08:32.394Z,26.70
2022-07-30T16:11:18.635Z,26.60
2022-07-30T16:14:04.711Z,26.40
2022-07-30T16:16:52.717Z,26.30
2022-07-30T16:19:39.528Z,26.20
2022-07-30T16:22:25.881Z,26.10
2022-07-30T16:25:13.143Z,26.00
2022-07-30T16:27:59.198Z,26.00
2022-07-30T16:30:51.360Z,26.00
2022-07-30T16:33:37.483Z,26.10
2022-07-30T16:36:23.526Z,26.10
2022-07-30T16:39:09.582Z,26.10
2022-07-30T16:41:55.534Z,26.20
2022-07-30T16:44:42.063Z,26.20
2022-07-30T16:47:28.486Z,26.20
2022-07-30T16:50:21.516Z,26.20
2022-07-30T16:53:14.108Z,26.30
2022-07-30T16:56:01.064Z,26.40
2022-07-30T16:58:46.859Z,26.70
2022-07-30T17:01:32.946Z,26.90
2022-07-30T17:04:19.413Z,27.00
2022-07-30T17:07:05.511Z,27.10
2022-07-30T17:09:52.842Z,27.10
2022-07-30T17:12:41.934Z,27.00
2022-07-30T17:15:37.578Z,26.90
2022-07-30T17:18:23.586Z,26.80
2022-07-30T17:21:09.795Z,26.80
2022-07-30T17:23:55.676Z,26.70
2022-07-30T17:26:43.465Z,26.60
2022-07-30T17:29:29.766Z,26.50
2022-07-30T17:32:15.822Z,26.40
2022-07-30T17:35:01.646Z,26.30
2022-07-30T17:37:47.687Z,26.20
2022-07-30T17:40:37.031Z,26.20
2022-07-30T17:43:23.096Z,26.20
2022-07-30T17:46:09.075Z,26.20
2022-07-30T17:48:55.022Z,26.10
2022-07-30T17:51:41.481Z,26.10
2022-07-30T17:54:27.691Z,26.10
2022-07-30T17:57:15.136Z,26.10
2022-07-30T18:00:01.402Z,26.00
2022-07-30T18:02:50.645Z,26.00
2022-07-30T18:05:36.696Z,26.00
2022-07-30T18:08:23.461Z,26.00
2022-07-30T18:11:13.553Z,26.00
2022-07-30T18:14:00.435Z,26.00
2022-07-30T18:16:46.740Z,25.90
2022-07-30T18:19:32.883Z,25.90
2022-07-30T18:22:29.118Z,25.80
2022-07-30T18:25:18.807Z,25.70
2022-07-30T18:28:05.804Z,25.60
2022-07-30T18:30:52.278Z,25.60
2022-07-30T18:33:41.205Z,25.50
2022-07-30T18:36:30.017Z,25.60
2022-07-30T18:39:16.948Z,25.50
2022-07-30T18:42:03.695Z,25.50
2022-07-30T18:44:50.285Z,25.40
2022-07-30T18:47:38.560Z,25.30
2022-07-30T18:50:27.820Z,25.30
2022-07-30T18:53:15.386Z,25.20
2022-07-30T18:56:02.111Z,25.10
2022-07-30T18:58:48.615Z,25.00
2022-07-30T19:01:35.044Z,24.90
2022-07-30T19:04:21.271Z,24.90
2022-07-30T19:07:07.922Z,24.80
2022-07-30T19:09:58.379Z,24.70
2022-07-30T19:12:44.844Z,24.70
2022-07-30T19:15:31.047Z,24.60
2022-07-30T19:18:17.446Z,24.60
2022-07-30T19:21:03.926Z,24.50
2022-07-30T19:23:50.071Z,24.40
2022-07-30T19:26:39.634Z,24.30
2022-07-30T19:29:25.788Z,24.20
2022-07-30T19:32:12.113Z,24.20
2022-07-30T19:34:58.120Z,24.10
2022-07-30T19:37:43.910Z,24.10
2022-07-30T19:40:30.176Z,24.00
2022-07-30T19:43:17.204Z,23.90
2022-07-30T19:46:08.597Z,23.90
2022-07-30T19:48:54.921Z,23.80
2022-07-30T19:54:47.639Z,23.70
2022-07-30T19:57:53.572Z,23.60
2022-07-30T20:00:39.715Z,23.60
2022-07-30T20:03:30.805Z,23.50
2022-07-30T20:06:19.139Z,23.40
2022-07-30T20:09:08.379Z,23.40
2022-07-30T20:12:00.835Z,23.30
2022-07-30T20:14:49.140Z,23.30
2022-07-30T20:17:35.154Z,23.30
2022-07-30T20:20:26.521Z,23.20
2022-07-30T20:23:13.413Z,23.20
2022-07-30T20:25:59.621Z,23.20
2022-07-30T20:28:52.605Z,23.10
2022-07-30T20:31:39.029Z,23.10
2022-07-30T20:34:30.695Z,23.00
2022-07-30T20:37:22.398Z,23.00
2022-07-30T20:40:09.516Z,23.00
2022-07-30T20:42:56.271Z,22.90
2022-07-30T20:45:43.008Z,22.90
2022-07-30T20:48:34.736Z,22.80
2022-07-30T20:51:21.548Z,22.80
2022-07-30T20:54:19.694Z,22.80
2022-07-30T20:57:08.482Z,22.80
2022-07-30T21:00:04.202Z,22.70
2022-07-30T21:02:54.669Z,22.70
2022-07-30T21:05:42.945Z,22.60
2022-07-30T21:08:29.078Z,22.60
2022-07-30T21:11:18.383Z,22.60
2022-07-30T21:14:05.069Z,22.60
2022-07-30T21:16:56.322Z,22.60
2022-07-30T21:19:42.345Z,22.50
2022-07-30T21:22:29.544Z,22.50
2022-07-30T21:25:15.439Z,22.50
2022-07-30T21:28:02.835Z,22.40
2022-07-30T21:30:50.056Z,22.40
2022-07-30T21:33:36.956Z,22.40
2022-07-30T21:36:24.990Z,22.30
2022-07-30T21:39:13.915Z,22.30
2022-07-30T21:42:00.701Z,22.30
2022-07-30T21:44:49.901Z,22.30
2022-07-30T21:47:40.082Z,22.20
2022-07-30T21:50:33.925Z,22.20
2022-07-30T21:53:26.448Z,22.20
2022-07-30T21:56:31.321Z,22.10
2022-07-30T21:59:17.883Z,22.10
2022-07-30T22:02:15.811Z,22.00
2022-07-30T22:05:05.318Z,22.00
2022-07-30T22:07:51.973Z,21.90
2022-07-30T22:10:41.353Z,21.90
2022-07-30T22:13:29.895Z,21.90
2022-07-30T22:16:16.031Z,21.80
2022-07-30T22:19:05.121Z,21.80
2022-07-30T22:21:51.926Z,21.80
2022-07-30T22:24:38.507Z,21.80
2022-07-30T22:27:25.065Z,21.80
2022-07-30T22:30:13.784Z,21.80
2022-07-30T22:33:18.789Z,21.80
2022-07-30T22:36:06.075Z,21.70
2022-07-30T22:38:58.683Z,21.70
2022-07-30T22:41:45.330Z,21.70
2022-07-30T22:44:31.604Z,21.70
2022-07-30T22:47:21.767Z,21.70
2022-07-30T22:50:25.249Z,21.60
2022-07-30T22:54:10.886Z,21.60
2022-07-30T22:56:35.977Z,21.60
2022-07-30T22:59:57.526Z,21.60
2022-07-30T23:02:31.778Z,21.60
2022-07-30T23:05:17.752Z,21.50
2022-07-30T23:08:04.237Z,21.50
2022-07-30T23:10:51.955Z,21.50
2022-07-30T23:12:16.448Z,23.80
2022-07-30T23:13:38.708Z,21.50
2022-07-30T23:16:26.659Z,21.40
2022-07-30T23:19:15.508Z,21.40
2022-07-30T23:22:08.290Z,21.40
2022-07-30T23:24:54.263Z,21.30
2022-07-30T23:27:40.952Z,21.30
2022-07-30T23:30:31.861Z,21.30
2022-07-30T23:33:20.589Z,21.20
2022-07-30T23:36:07.986Z,21.20
2022-07-30T23:38:53.836Z,21.10
2022-07-30T23:41:39.653Z,21.10
2022-07-30T23:44:25.705Z,21.10
2022-07-30T23:47:11.517Z,21.10
2022-07-30T23:49:58.203Z,21.10
2022-07-30T23:52:45.207Z,21.10
2022-07-30T23:55:32.433Z,21.10
2022-07-30T23:58:18.809Z,21.10
